LGSALGSR

Guest
Details From LGSA - Khania Souda
To LGSR - SANTORINI
Flight Number -
Tags generated
Created
Modified
Stats Distance 83 nm / 154 km
Max Altitude 7,800 ft / 2,377 m
Waypoints 3
Social Downloads 0
Likes 0
Share VATSIM

Download

Looking for another format? Having issues loading an existing format? Contact us
Advertisement - Login to hide

Notes

Basic altitude profile: - Ascent Rate: 2500ft/min - Ascent Speed: 250kts - Cruise Altitude: 35000ft - Cruise Speed: 420kts - Descent Rate: 1500ft/min - Descent Speed: 250kts Options: - Use NATs: yes - Use PACOTS: yes - Use low airways: yes - Use high airways: yes

Route

LGSA DIRMI LGSR

ID Type Via Altitude Latitude Longitude Leg Dist Tot Dist Heading (true) Name
O LGSA APT - 0 ft / 0 m 35.53159˚ 24.15118˚ - 0 nm - Khania Souda
DIRMI FIX - 7,800 ft / 2,377 m 36.05611˚ 24.84972˚ 46 nm 46 nm 47° / 47° -
O LGSR APT - 0 ft / 0 m 36.39895˚ 25.47851˚ 36 nm 83 nm 56° / 56° SANTORINI

Altitude Profile

Advertisement - Login to hide

LGSA

Details ICAO LGSA (CHQ)
Name Khania Souda
Region Greece
Timezone Europe/Athens (UTC+3.0)
Stats Elevation 490 ft / 149 m (AMSL)
Location 35.531592° 24.151184°
Runways 1
Magnetic Variation 4.324° E

METAR

LGSA 230150Z 00000KT 9000 FEW006 19/18 Q1017

Decode

TAF

TAF LGSA 222300Z 2300/2324 09010KT 9999 FEW020 PROB30 2300/2305 5000 BR BKN006

Decode

Departure Runways

ID Width Length Bearing (true) Bearing (mag) Surface Threshold Offset Overrun Length
11 148 ft / 45 m 10,967 ft / 3,343 m 111.40° 107.08° Asphalt 0 ft / 0 m 735 ft / 224 m
29 148 ft / 45 m 10,967 ft / 3,343 m 291.42° 287.10° Asphalt 0 ft / 0 m 900 ft / 274 m

LGSR

Details ICAO LGSR (JTR)
Name SANTORINI
Region Greece
Timezone Europe/Athens (UTC+3.0)
Stats Elevation 127 ft / 39 m (AMSL)
Location 36.398949° 25.478507°
Runways 2
Magnetic Variation 4.554° E

METAR

LGSR 230150Z 30007KT CAVOK 19/14 Q1015 RMK SCT180 BLU

Decode

TAF

TAF LGSR 222300Z 2300/2324 34013KT 9999 FEW030

Decode

Destination Runways

ID Width Length Bearing (true) Bearing (mag) Surface Threshold Offset Overrun Length
16L 98 ft / 30 m 6,978 ft / 2,127 m 159.53° 154.98° Asphalt 0 ft / 0 m 909 ft / 277 m
16R 98 ft / 30 m 6,969 ft / 2,124 m 159.56° 155.01° Asphalt 0 ft / 0 m 420 ft / 128 m
34L 98 ft / 30 m 6,969 ft / 2,124 m 339.56° 335.01° Asphalt 0 ft / 0 m 0 ft / 0 m
34R 98 ft / 30 m 6,978 ft / 2,127 m 339.54° 334.99° Asphalt 0 ft / 0 m 0 ft / 0 m